Time;durP1;ratioP1;P1;durP2;ratioP2;P2;SDS_P1;SDS_P2;PMS_P1;PMS_P2;Temp;Humidity;BMP_temperature;BMP_pressure;BME280_temperature;BME280_humidity;BME280_pressure;Samples;Min_cycle;Max_cycle;Signal;HPM_P1;HPM_P2
2021/07/10 00:02:25;;;;;;;2.50;2.30;;;16.40;71.60;;;16.04;56.63;95406.03;5034347;28;20223;-80
2021/07/10 00:04:52;;;;;;;2.70;2.50;;;16.40;71.70;;;16.05;57.01;95402.38;5016904;28;20231;-81
2021/07/10 00:07:19;;;;;;;2.55;2.35;;;16.30;72.60;;;16.01;57.20;95393.22;5033886;28;20227;-80
2021/07/10 00:09:45;;;;;;;2.47;2.28;;;16.30;71.90;;;16.06;57.16;95395.22;5034216;28;20230;-81
2021/07/10 00:12:12;;;;;;;2.42;2.22;;;16.30;71.90;;;16.06;57.23;95390.72;5034289;28;20215;-80
2021/07/10 00:14:38;;;;;;;2.65;2.45;;;16.40;72.10;;;16.10;57.57;95396.41;5017562;28;20595;-80
2021/07/10 00:17:05;;;;;;;2.33;2.15;;;16.30;72.30;;;16.11;57.46;95385.63;5050532;28;20212;-80
2021/07/10 00:19:33;;;;;;;2.72;2.17;;;16.30;72.50;;;16.15;57.63;95386.81;5032900;28;20223;-80
2021/07/10 00:21:59;;;;;;;3.08;2.50;;;16.40;72.60;;;16.17;57.68;95394.53;5050864;28;20208;-81
2021/07/10 00:24:30;;;;;;;2.50;2.30;;;16.40;72.60;;;16.15;57.30;95386.00;5034093;28;20223;-81
2021/07/10 00:26:59;;;;;;;2.60;2.40;;;16.50;72.60;;;16.14;57.16;95379.09;5030446;28;20208;-82
2021/07/10 00:29:26;;;;;;;2.60;2.25;;;16.40;72.60;;;16.14;57.33;95379.09;5014036;28;20254;-81
2021/07/10 00:31:53;;;;;;;2.75;2.55;;;16.40;72.50;;;16.09;58.27;95374.44;4997928;28;20270;-80
2021/07/10 00:34:20;;;;;;;2.80;2.60;;;16.40;72.60;;;16.08;57.98;95369.38;4997703;28;20234;-80
2021/07/10 00:36:47;;;;;;;3.72;2.60;;;16.40;72.70;;;16.05;58.63;95367.97;4998798;28;20569;-79
2021/07/10 00:39:13;;;;;;;2.55;2.35;;;16.40;72.90;;;16.05;58.52;95367.97;5033434;28;20329;-80
2021/07/10 00:41:40;;;;;;;2.90;2.70;;;16.40;73.10;;;16.04;59.07;95362.88;5033940;28;20223;-80
2021/07/10 00:44:06;;;;;;;2.90;2.60;;;16.40;73.20;;;16.04;59.96;95355.75;5033922;28;20700;-79
2021/07/10 00:46:34;;;;;;;2.78;2.58;;;16.40;73.70;;;16.06;60.29;95355.53;5029077;28;20219;-81
2021/07/10 00:49:01;;;;;;;2.70;2.50;;;16.40;74.00;;;16.06;59.83;95347.59;5015517;28;20405;-81
2021/07/10 00:51:28;;;;;;;2.67;2.47;;;16.40;74.00;;;16.06;59.76;95345.75;5050293;28;20282;-81
2021/07/10 00:53:54;;;;;;;2.60;2.40;;;16.40;75.00;;;16.08;59.68;95342.91;5016939;28;20235;-80
2021/07/10 00:56:21;;;;;;;3.22;2.40;;;16.30;74.00;;;16.09;59.52;95344.53;5017348;28;20229;-81
2021/07/10 00:58:49;;;;;;;2.50;2.30;;;16.30;73.90;;;16.09;59.80;95347.19;5049550;28;20277;-81
2021/07/10 01:01:16;;;;;;;3.17;2.40;;;16.40;74.20;;;16.09;60.07;95344.53;5017442;28;20294;-80
2021/07/10 01:03:46;;;;;;;2.40;2.20;;;16.40;74.30;;;16.10;60.03;95339.03;5051417;28;20685;-79
2021/07/10 01:06:15;;;;;;;2.50;2.22;;;16.40;74.30;;;16.11;59.78;95332.72;5032965;28;20218;-80
2021/07/10 01:08:45;;;;;;;2.15;2.03;;;16.40;74.20;;;16.09;60.02;95331.31;5017647;28;20203;-80
2021/07/10 01:11:12;;;;;;;2.50;2.30;;;16.40;74.20;;;16.06;59.48;95327.22;5017417;28;20356;-81
2021/07/10 01:13:39;;;;;;;2.03;1.92;;;16.40;74.10;;;16.06;59.20;95324.59;5033360;28;20243;-79
2021/07/10 01:16:06;;;;;;;2.50;2.30;;;16.40;74.00;;;16.02;59.20;95318.13;5019239;28;20261;-81
2021/07/10 01:18:33;;;;;;;2.30;2.10;;;16.30;73.90;;;15.98;59.06;95309.78;5033377;28;20192;-80
2021/07/10 01:21:00;;;;;;;2.40;2.20;;;16.30;73.80;;;15.95;59.16;95312.88;5000479;28;20663;-80
2021/07/10 01:23:29;;;;;;;2.28;2.08;;;16.30;73.80;;;15.90;59.13;95307.41;5000851;28;20208;-79
2021/07/10 01:25:55;;;;;;;2.72;2.53;;;16.30;73.70;;;15.85;59.37;95301.97;5000716;28;20236;-81
2021/07/10 01:28:22;;;;;;;2.53;2.30;;;16.20;73.60;;;15.83;59.29;95304.00;5001657;28;20614;-80
2021/07/10 01:30:49;;;;;;;2.75;2.55;;;16.20;73.80;;;15.78;59.24;95301.16;5026362;28;20681;-81
2021/07/10 01:33:16;;;;;;;2.42;2.22;;;16.20;73.90;;;15.76;60.40;95297.91;5020110;28;20714;-79
2021/07/10 01:35:44;;;;;;;2.50;2.30;;;16.10;74.20;;;15.78;59.66;95309.09;5036445;28;20222;-80
2021/07/10 01:38:14;;;;;;;2.50;2.30;;;16.10;74.20;;;15.76;59.65;95305.84;5036189;28;20397;-80
2021/07/10 01:40:42;;;;;;;2.50;2.30;;;16.10;74.30;;;15.71;59.78;95295.94;5036578;28;20231;-81
2021/07/10 01:43:11;;;;;;;2.10;1.98;;;16.10;74.20;;;15.66;59.92;95290.47;5036854;28;20211;-81
2021/07/10 01:45:38;;;;;;;2.50;2.30;;;16.00;74.30;;;15.68;59.34;95297.19;5020242;28;20253;-80
2021/07/10 01:48:10;;;;;;;2.42;2.22;;;16.00;74.20;;;15.65;59.68;95288.88;5032575;28;20582;-81
2021/07/10 01:50:37;;;;;;;2.90;2.20;;;16.00;74.30;;;15.60;59.90;95294.78;5000518;28;20224;-80
2021/07/10 01:53:04;;;;;;;2.38;2.20;;;16.00;74.20;;;15.59;59.38;95287.09;5016330;28;20259;-80
2021/07/10 01:55:30;;;;;;;2.72;2.25;;;16.00;74.30;;;15.56;59.76;95290.94;5016418;28;20227;-81
2021/07/10 01:57:57;;;;;;;2.97;2.67;;;15.90;74.20;;;15.53;60.92;95294.81;5001050;28;20219;-80
2021/07/10 02:00:31;;;;;;;2.60;2.35;;;15.90;74.50;;;15.51;60.05;95288.13;5014547;28;20224;-80
2021/07/10 02:02:58;;;;;;;2.72;2.53;;;15.90;74.90;;;15.50;60.23;95289.16;5032923;28;20204;-80
2021/07/10 02:05:27;;;;;;;2.85;2.35;;;15.80;74.50;;;15.47;60.68;95285.09;5016220;28;20233;-81
2021/07/10 02:07:57;;;;;;;3.03;2.65;;;15.80;74.80;;;15.48;60.63;95283.28;5013317;28;20256;-81
2021/07/10 02:10:28;;;;;;;2.78;2.58;;;15.90;75.00;;;15.45;60.90;95287.16;5000221;28;20232;-80
2021/07/10 02:13:00;;;;;;;2.58;2.38;;;15.80;75.00;;;15.46;60.70;95288.75;5000154;28;20214;-80
2021/07/10 02:15:27;;;;;;;2.90;2.70;;;15.80;75.20;;;15.41;61.43;95283.31;5019259;28;20224;-80
2021/07/10 02:17:54;;;;;;;3.00;2.70;;;15.80;75.10;;;15.42;61.62;95284.13;5035926;28;20376;-81
2021/07/10 02:20:23;;;;;;;2.63;2.42;;;15.80;75.40;;;15.41;62.06;95285.16;5035733;28;20383;-80
2021/07/10 02:22:50;;;;;;;2.72;2.53;;;15.80;75.60;;;15.41;61.44;95288.59;5036076;28;20215;-81
2021/07/10 02:25:20;;;;;;;2.80;2.60;;;15.80;75.70;;;15.37;61.30;95285.56;5018897;28;20345;-80
2021/07/10 02:27:47;;;;;;;2.67;2.47;;;15.80;75.70;;;15.36;61.66;95291.88;5018564;28;20301;-79
2021/07/10 02:30:22;;;;;;;2.50;2.30;;;15.70;75.60;;;15.32;61.72;95279.31;5019157;28;20250;-80
2021/07/10 02:32:49;;;;;;;2.60;2.38;;;15.70;75.90;;;15.31;61.03;95281.13;5035839;28;20202;-80
2021/07/10 02:35:16;;;;;;;2.78;2.58;;;15.70;75.50;;;15.31;61.42;95289.06;5015527;28;20593;-81
2021/07/10 02:37:45;;;;;;;2.78;2.58;;;15.60;75.40;;;15.25;61.22;95284.63;4983491;28;20690;-80
2021/07/10 02:40:14;;;;;;;2.70;2.50;;;15.60;75.50;;;15.23;60.88;95285.88;4983106;28;20239;-80
2021/07/10 02:42:41;;;;;;;2.90;2.70;;;15.60;75.50;;;15.20;61.22;95284.47;4983382;28;20228;-81
2021/07/10 02:45:11;;;;;;;4.00;2.67;;;15.60;75.50;;;15.16;61.61;95277.94;5026783;28;20276;-80
2021/07/10 02:47:40;;;;;;;2.97;2.58;;;15.50;75.70;;;15.14;60.84;95285.31;5002953;28;20317;-81
2021/07/10 02:50:20;;;;;;;3.45;3.13;;;15.60;75.60;;;15.09;61.60;95283.28;5035485;28;20672;-79
2021/07/10 02:52:47;;;;;;;3.20;2.90;;;15.50;76.50;;;15.08;61.36;95286.94;5041108;28;20623;-80
2021/07/10 02:55:14;;;;;;;3.70;3.03;;;15.40;75.60;;;15.05;61.17;95282.09;5035386;28;20231;-81
2021/07/10 02:57:40;;;;;;;3.28;2.97;;;15.40;75.60;;;15.02;61.58;95287.78;5035404;28;20250;-80
2021/07/10 03:00:17;;;;;;;3.35;3.05;;;15.40;75.70;;;14.98;61.74;95286.59;5035524;28;20723;-81
2021/07/10 03:02:44;;;;;;;3.65;3.17;;;15.40;76.30;;;14.97;62.09;95290.25;5034685;28;20587;-80
2021/07/10 03:05:12;;;;;;;3.50;3.20;;;15.40;76.00;;;14.95;62.08;95284.38;5051099;28;20660;-80
2021/07/10 03:07:40;;;;;;;3.40;3.10;;;15.30;76.10;;;14.93;62.13;95291.69;5035126;28;20585;-80
2021/07/10 03:10:15;;;;;;;5.88;3.50;;;15.40;76.20;;;14.92;62.06;95296.16;5034888;28;20261;-80
2021/07/10 03:12:42;;;;;;;3.40;3.10;;;15.30;76.40;;;14.86;62.55;95287.22;5032067;28;20703;-80
2021/07/10 03:15:13;;;;;;;4.28;3.35;;;15.30;76.30;;;14.89;62.03;95301.84;4999432;28;20219;-80
2021/07/10 03:17:40;;;;;;;3.72;3.42;;;15.20;76.30;;;14.90;62.54;95298.19;5015590;28;20220;-79
2021/07/10 03:20:08;;;;;;;3.85;3.45;;;15.20;76.30;;;14.89;62.29;95301.84;5035001;28;20297;-80
2021/07/10 03:22:35;;;;;;;3.47;3.17;;;15.30;76.50;;;14.90;61.91;95303.47;5018576;28;20478;-81
2021/07/10 03:25:05;;;;;;;3.55;3.25;;;15.20;76.40;;;14.89;62.14;95299.22;5030651;28;20272;-81
2021/07/10 03:27:32;;;;;;;6.15;3.60;;;15.20;76.60;;;14.87;62.57;95288.84;4998583;28;20212;-79
2021/07/10 03:29:58;;;;;;;3.72;3.38;;;15.20;76.80;;;14.90;62.38;95295.56;5013605;28;20247;-81
2021/07/10 03:32:25;;;;;;;3.55;3.15;;;15.20;76.80;;;14.92;62.26;95295.38;5012390;28;20224;-80
2021/07/10 03:34:52;;;;;;;5.15;3.70;;;15.20;76.70;;;14.93;62.64;95294.31;5021375;28;20243;-81
2021/07/10 03:37:18;;;;;;;4.45;3.78;;;15.20;76.90;;;14.95;63.31;95302.84;5048992;28;20763;-80
2021/07/10 03:39:45;;;;;;;4.25;3.85;;;15.20;77.20;;;14.96;62.56;95302.63;5049578;28;20219;-81
2021/07/10 03:42:12;;;;;;;3.60;3.30;;;15.30;77.20;;;14.99;63.28;95304.03;5033367;28;20207;-81
2021/07/10 03:44:38;;;;;;;4.07;3.67;;;15.20;77.40;;;15.02;63.28;95301.78;5048181;28;20223;-81
2021/07/10 03:47:05;;;;;;;4.05;3.75;;;15.30;77.60;;;15.05;63.45;95314.59;5012621;28;20208;-81
2021/07/10 03:49:32;;;;;;;4.00;3.70;;;15.30;77.70;;;15.06;63.47;95304.81;4980293;28;20308;-81
2021/07/10 03:51:59;;;;;;;3.67;3.30;;;15.40;77.80;;;15.12;63.02;95305.81;4996513;28;20212;-80
2021/07/10 03:54:26;;;;;;;4.00;3.60;;;15.30;77.70;;;15.15;63.33;95306.22;4997867;28;20252;-81
2021/07/10 03:56:53;;;;;;;4.50;3.42;;;15.40;77.80;;;15.16;62.93;95302.56;4995263;28;20512;-80
2021/07/10 03:59:19;;;;;;;3.70;3.05;;;15.40;77.80;;;15.20;63.00;95298.47;5023308;28;20716;-81
2021/07/10 04:01:46;;;;;;;4.22;3.30;;;15.40;77.80;;;15.25;63.24;95302.31;5031167;28;20260;-82
2021/07/10 04:04:13;;;;;;;4.65;3.75;;;15.40;77.70;;;15.26;63.27;95294.19;5031639;28;20569;-80
2021/07/10 04:06:40;;;;;;;3.63;3.33;;;15.50;78.10;;;15.30;63.06;95302.50;5017015;28;20234;-81
2021/07/10 04:09:07;;;;;;;3.55;3.25;;;15.50;77.90;;;15.35;63.09;95307.94;5016622;28;20326;-81
2021/07/10 04:11:34;;;;;;;3.40;3.10;;;15.50;77.90;;;15.39;63.13;95314.41;5032546;28;20215;-81
2021/07/10 04:14:01;;;;;;;3.38;3.08;;;15.50;77.90;;;15.41;63.06;95308.94;5034141;28;20230;-81
2021/07/10 04:16:27;;;;;;;3.17;2.97;;;15.60;77.90;;;15.49;63.20;95316.59;5049960;28;20298;-81
2021/07/10 04:18:54;;;;;;;4.00;3.03;;;15.60;77.90;;;15.52;62.72;95309.06;5034199;28;20235;-81
2021/07/10 04:21:21;;;;;;;3.50;3.20;;;15.70;78.00;;;15.58;62.73;95311.91;5017594;28;20222;-81
2021/07/10 04:23:48;;;;;;;3.60;3.30;;;15.70;77.90;;;15.59;62.85;95316.97;5033866;28;20268;-81
2021/07/10 04:26:16;;;;;;;3.88;3.47;;;15.70;78.00;;;15.66;62.73;95322.19;5033247;28;20214;-81
2021/07/10 04:28:43;;;;;;;3.90;3.00;;;15.80;78.00;;;15.68;62.48;95317.50;5034108;28;20218;-81
2021/07/10 04:31:10;;;;;;;3.28;3.00;;;15.80;78.00;;;15.74;63.00;95323.78;5033646;28;20238;-81
2021/07/10 04:33:37;;;;;;;3.40;3.10;;;15.90;78.20;;;15.80;63.17;95325.56;5033257;28;20230;-82
2021/07/10 04:36:04;;;;;;;3.72;3.40;;;15.90;78.40;;;15.83;62.61;95331.28;5050316;28;20265;-82
2021/07/10 04:38:31;;;;;;;3.47;3.17;;;15.90;78.40;;;15.86;63.48;95330.03;5017493;28;20227;-81
2021/07/10 04:40:58;;;;;;;3.40;3.10;;;16.00;78.50;;;15.94;63.90;95334.25;5033856;28;20708;-82
2021/07/10 04:43:24;;;;;;;3.10;2.90;;;16.10;79.00;;;16.01;63.82;95342.94;5033989;28;20248;-81
2021/07/10 04:45:51;;;;;;;3.22;3.00;;;16.10;79.00;;;16.08;63.36;95340.25;5031331;28;20227;-81
2021/07/10 04:48:17;;;;;;;3.40;3.10;;;16.10;78.90;;;16.12;63.85;95338.78;5033160;28;20223;-82
2021/07/10 04:50:44;;;;;;;3.28;2.97;;;16.20;79.00;;;16.16;63.70;95329.38;5033046;28;20234;-82
2021/07/10 04:53:10;;;;;;;3.10;2.80;;;16.20;79.00;;;16.26;63.68;95334.19;5014986;28;20611;-81
2021/07/10 04:55:38;;;;;;;3.15;2.60;;;16.30;79.00;;;16.34;63.19;95341.88;5032444;28;20373;-81
2021/07/10 04:58:04;;;;;;;3.20;2.90;;;16.40;79.00;;;16.41;63.14;95332.03;5050297;28;20231;-82
2021/07/10 05:00:31;;;;;;;2.80;2.60;;;16.40;78.90;;;16.48;63.27;95334.63;5017059;28;20237;-82
2021/07/10 05:02:57;;;;;;;3.50;3.20;;;16.40;78.70;;;16.54;63.28;95336.41;5033491;28;20676;-82
2021/07/10 05:05:24;;;;;;;3.17;2.90;;;16.60;78.70;;;16.60;63.05;95337.34;5032928;28;20300;-82
2021/07/10 05:07:50;;;;;;;4.05;2.90;;;16.60;78.70;;;16.65;63.34;95334.88;5001084;28;20215;-82
2021/07/10 05:10:17;;;;;;;4.32;2.80;;;16.70;78.60;;;16.70;62.80;95335.00;5049424;28;20227;-82
2021/07/10 05:12:43;;;;;;;3.05;2.78;;;16.70;78.50;;;16.75;62.89;95343.09;5033786;28;20277;-81
2021/07/10 05:15:11;;;;;;;3.55;3.25;;;16.70;78.40;;;16.81;62.99;95336.13;5027883;28;20612;-81
2021/07/10 05:17:38;;;;;;;3.08;2.65;;;16.80;78.50;;;16.88;63.00;95331.56;5028777;28;20242;-81
2021/07/10 05:20:09;;;;;;;2.67;2.47;;;16.90;78.50;;;16.96;62.75;95338.44;5020317;28;20227;-80
2021/07/10 05:22:37;;;;;;;3.50;2.70;;;16.90;78.50;;;17.02;62.24;95340.19;5001473;28;20319;-81
2021/07/10 05:25:05;;;;;;;2.83;2.63;;;17.00;78.40;;;17.08;62.82;95346.47;5026855;28;20227;-81
2021/07/10 05:27:31;;;;;;;3.28;2.92;;;17.00;78.30;;;17.14;62.70;95329.66;5027142;28;20230;-81
2021/07/10 05:29:57;;;;;;;2.40;2.20;;;17.10;78.30;;;17.20;61.97;95339.38;5009889;28;20267;-81
2021/07/10 05:32:24;;;;;;;2.60;2.40;;;17.20;78.20;;;17.27;62.17;95345.41;5017207;28;20215;-83
2021/07/10 05:34:51;;;;;;;2.60;2.40;;;17.20;78.00;;;17.35;62.38;95351.44;5003572;28;20231;-82
2021/07/10 05:37:18;;;;;;;2.50;2.30;;;17.30;78.20;;;17.42;61.85;95342.34;5044889;28;20207;-82
2021/07/10 05:39:44;;;;;;;2.47;2.28;;;17.40;78.20;;;17.52;62.03;95348.97;5029738;28;20226;-82
2021/07/10 05:42:11;;;;;;;2.70;2.42;;;17.50;78.30;;;17.59;61.56;95352.34;5041985;28;20672;-81
2021/07/10 05:44:37;;;;;;;2.00;1.90;;;17.50;78.10;;;17.66;61.66;95355.69;4995658;28;20224;-80
2021/07/10 05:47:05;;;;;;;2.20;2.00;;;17.50;78.00;;;17.74;61.62;95347.44;5019097;28;20215;-80
2021/07/10 05:49:32;;;;;;;2.42;2.22;;;17.60;78.70;;;17.84;61.37;95362.81;5026946;28;20233;-81
2021/07/10 05:51:58;;;;;;;2.22;2.13;;;17.70;77.90;;;17.91;61.28;95365.38;5026431;28;20215;-80
2021/07/10 05:54:26;;;;;;;2.65;2.28;;;17.70;77.80;;;18.01;61.06;95370.16;5027220;28;20227;-81
2021/07/10 05:56:53;;;;;;;2.30;2.10;;;17.80;77.60;;;18.11;60.86;95380.22;5010305;28;20302;-80
2021/07/10 05:59:20;;;;;;;2.00;1.90;;;17.90;77.70;;;18.19;61.10;95370.06;5043599;28;20307;-81
2021/07/10 06:01:47;;;;;;;2.55;1.95;;;18.00;77.70;;;18.26;60.84;95370.00;5023743;28;20251;-81
2021/07/10 06:04:13;;;;;;;2.30;2.10;;;18.00;77.50;;;18.35;60.79;95375.75;5016111;28;20231;-81
2021/07/10 06:06:41;;;;;;;2.20;2.00;;;18.10;77.40;;;18.44;60.46;95365.59;5006191;28;20195;-80
2021/07/10 06:09:08;;;;;;;2.40;2.20;;;18.20;77.20;;;18.51;60.78;95371.63;5039881;28;20238;-82
2021/07/10 06:11:34;;;;;;;2.20;2.10;;;18.30;77.30;;;18.59;60.35;95378.44;5030212;28;20219;-82
2021/07/10 06:14:08;;;;;;;4.00;2.10;;;18.30;77.30;;;18.67;60.45;95375.44;5046024;28;20977;-80
2021/07/10 06:16:36;;;;;;;2.38;2.17;;;18.50;77.10;;;18.72;60.09;95381.69;5003864;28;20743;-79
2021/07/10 06:19:08;;;;;;;1.90;1.80;;;18.50;76.80;;;18.83;59.55;95389.88;5046461;28;20256;-80
2021/07/10 06:21:35;;;;;;;1.90;1.80;;;18.60;76.70;;;18.88;59.67;95385.47;5046381;28;20223;-81
2021/07/10 06:24:03;;;;;;;1.83;1.73;;;18.70;76.50;;;18.95;59.62;95388.03;5029532;28;20246;-80
2021/07/10 06:26:29;;;;;;;1.70;1.60;;;18.70;76.30;;;18.95;58.79;95385.38;5015749;28;20211;-81
2021/07/10 06:28:56;;;;;;;3.08;1.88;;;18.80;76.00;;;19.01;58.86;95383.66;5031617;28;20228;-81
2021/07/10 06:31:22;;;;;;;2.00;1.80;;;18.90;75.60;;;19.06;58.85;95385.59;5002336;28;20204;-80
2021/07/10 06:33:50;;;;;;;2.83;1.70;;;18.90;75.60;;;19.11;58.97;95386.50;4992272;28;20235;-80
2021/07/10 06:36:17;;;;;;;1.85;1.75;;;18.90;75.70;;;19.19;59.30;95385.34;5046723;28;20696;-81
2021/07/10 06:38:43;;;;;;;1.58;1.48;;;19.00;75.90;;;19.27;58.68;95384.97;5030127;28;20207;-80
2021/07/10 06:41:10;;;;;;;1.90;1.80;;;19.00;75.80;;;19.39;59.05;95389.47;5029529;28;20218;-80
2021/07/10 06:43:37;;;;;;;2.40;2.03;;;19.10;76.00;;;19.49;58.83;95387.81;5019486;28;20234;-81
2021/07/10 06:46:07;;;;;;;2.00;1.90;;;19.20;75.90;;;19.58;58.80;95371.47;5029288;28;21757;-82
2021/07/10 06:48:35;;;;;;;1.92;1.83;;;19.20;75.80;;;19.65;58.43;95380.94;5028302;28;20304;-81
2021/07/10 06:51:03;;;;;;;2.03;1.83;;;19.30;75.60;;;19.76;58.27;95383.78;5016025;28;20223;-81
2021/07/10 06:53:31;;;;;;;1.60;1.50;;;19.40;75.60;;;19.84;58.39;95380.78;5051996;28;20222;-81
2021/07/10 06:55:57;;;;;;;1.75;1.65;;;19.50;75.40;;;19.91;58.11;95383.28;5018461;28;20255;-80
2021/07/10 06:58:24;;;;;;;1.80;1.70;;;19.60;75.40;;;19.93;57.00;95387.34;5035121;28;20203;-81
2021/07/10 07:00:50;;;;;;;1.70;1.60;;;19.60;74.70;;;19.94;57.02;95380.16;5035195;28;20576;-82
2021/07/10 07:03:17;;;;;;;1.83;1.70;;;19.70;74.40;;;19.97;57.19;95379.69;5034804;28;20222;-82
2021/07/10 07:05:44;;;;;;;1.75;1.63;;;19.70;75.10;;;20.03;57.47;95377.91;5017524;28;20230;-81
2021/07/10 07:08:11;;;;;;;1.60;1.50;;;19.80;74.60;;;20.10;56.87;95389.22;5035316;28;20230;-82
2021/07/10 07:10:38;;;;;;;2.15;1.50;;;19.80;74.40;;;20.18;56.91;95385.34;5050908;28;20215;-82
2021/07/10 07:13:05;;;;;;;1.60;1.50;;;19.90;74.50;;;20.25;56.96;95389.47;5034133;28;20227;-83
2021/07/10 07:15:32;;;;;;;1.40;1.30;;;19.90;74.10;;;20.30;56.69;95384.22;5025312;28;20621;-81
2021/07/10 07:18:00;;;;;;;1.73;1.50;;;20.00;74.00;;;20.36;56.46;95387.78;5031092;28;20228;-82
2021/07/10 07:20:27;;;;;;;1.50;1.40;;;20.00;73.80;;;20.41;56.70;95387.03;5033623;28;20235;-82
2021/07/10 07:22:53;;;;;;;1.92;1.65;;;20.10;74.00;;;20.49;56.33;95381.31;5034455;28;20207;-80
2021/07/10 07:25:21;;;;;;;1.75;1.60;;;20.10;73.80;;;20.55;56.65;95385.66;5030057;28;20243;-81
2021/07/10 07:27:51;;;;;;;1.60;1.50;;;20.20;73.70;;;20.60;56.00;95385.78;5002461;28;20578;-81
2021/07/10 07:30:19;;;;;;;1.50;1.40;;;20.30;73.30;;;20.69;56.09;95382.66;5034670;28;20277;-82
2021/07/10 07:32:46;;;;;;;1.35;1.30;;;20.30;73.50;;;20.76;56.31;95386.00;5034590;28;20302;-81
2021/07/10 07:35:14;;;;;;;1.40;1.30;;;20.40;73.50;;;20.83;56.06;95378.66;5034090;28;20231;-80
2021/07/10 07:37:43;;;;;;;1.88;1.42;;;20.40;73.50;;;20.91;55.73;95370.22;5047558;28;20220;-81
2021/07/10 07:40:14;;;;;;;1.50;1.40;;;20.50;73.10;;;20.98;55.78;95370.03;5034356;28;20748;-81
2021/07/10 07:42:43;;;;;;;1.40;1.30;;;20.60;73.10;;;21.03;55.93;95375.47;5021138;28;20207;-81
2021/07/10 07:45:10;;;;;;;1.70;1.60;;;20.60;73.10;;;21.12;55.32;95367.84;5032502;28;20294;-81
2021/07/10 07:47:38;;;;;;;1.40;1.30;;;20.70;73.10;;;21.21;55.79;95369.00;5034087;28;20222;-81
2021/07/10 07:50:08;;;;;;;1.25;1.15;;;20.80;73.00;;;21.33;55.15;95374.22;5036441;28;20226;-80
2021/07/10 07:52:34;;;;;;;1.40;1.30;;;20.90;72.80;;;21.42;55.24;95367.41;5031152;28;20220;-80
2021/07/10 07:55:05;;;;;;;1.30;1.20;;;20.90;72.80;;;21.51;55.00;95373.09;5046310;28;20698;-80
2021/07/10 07:57:38;;;;;;;1.27;1.27;;;21.00;72.50;;;21.59;54.60;95370.03;5031369;28;20219;-81
2021/07/10 08:00:09;;;;;;;2.42;1.40;;;21.10;72.50;;;21.65;54.18;95367.41;5034334;28;20244;-81
2021/07/10 08:02:36;;;;;;;1.30;1.20;;;21.20;71.80;;;21.71;54.43;95363.75;5050579;28;20700;-82
2021/07/10 08:05:05;;;;;;;2.25;1.40;;;21.20;72.00;;;21.75;54.04;95364.84;5041956;28;20228;-81
2021/07/10 08:07:33;;;;;;;1.20;1.20;;;21.30;71.90;;;21.84;53.99;95371.34;5034109;28;20216;-83
2021/07/10 08:10:11;;;;;;;1.58;1.48;;;21.40;71.70;;;21.90;54.04;95364.22;5034197;28;20262;-82
2021/07/10 08:12:40;;;;;;;1.60;1.50;;;21.40;72.00;;;22.01;53.77;95363.25;5034383;28;20180;-83
2021/07/10 08:15:09;;;;;;;1.27;1.17;;;21.50;71.90;;;22.14;54.26;95359.34;5049963;28;20325;-83
2021/07/10 08:17:43;;;;;;;1.77;1.20;;;21.60;71.80;;;22.26;53.85;95351.16;4998790;28;20224;-83
2021/07/10 08:20:12;;;;;;;1.33;1.23;;;21.70;71.80;;;22.37;53.46;95362.72;4998121;28;20228;-82
2021/07/10 08:22:39;;;;;;;1.48;1.38;;;21.80;71.60;;;22.45;53.29;95348.09;5014482;28;20226;-81
2021/07/10 08:25:07;;;;;;;1.50;1.40;;;21.80;71.30;;;22.56;53.00;95352.50;4987455;28;20699;-83
2021/07/10 08:27:35;;;;;;;1.27;1.27;;;22.00;71.20;;;22.66;53.16;95349.88;5014356;28;20226;-83
2021/07/10 08:30:04;;;;;;;1.50;1.40;;;22.10;71.20;;;22.79;52.86;95348.63;4997654;28;20302;-82
2021/07/10 08:32:31;;;;;;;1.27;1.27;;;22.10;71.00;;;22.86;52.47;95343.84;5018475;28;20231;-83
2021/07/10 08:34:58;;;;;;;1.38;1.27;;;22.20;70.90;;;22.89;52.54;95347.88;4982999;28;20384;-83
2021/07/10 08:37:24;;;;;;;1.23;1.23;;;22.30;70.40;;;22.86;51.97;95345.72;5050428;28;20190;-83
2021/07/10 08:39:53;;;;;;;1.42;1.33;;;22.40;70.20;;;22.90;52.53;95351.34;5017578;28;20223;-83
2021/07/10 08:42:20;;;;;;;1.30;1.20;;;22.40;70.50;;;23.00;52.25;95344.19;5021982;28;20211;-81
2021/07/10 08:44:52;;;;;;;1.10;1.10;;;22.50;70.60;;;23.10;51.80;95334.59;5029381;28;20241;-82
2021/07/10 08:47:19;;;;;;;1.33;1.30;;;22.60;70.20;;;23.25;52.11;95353.41;5029732;28;20582;-82
2021/07/10 08:49:47;;;;;;;1.10;1.10;;;22.70;70.50;;;23.40;51.98;95350.00;5019624;28;20230;-82
2021/07/10 08:52:15;;;;;;;1.40;1.30;;;22.70;70.50;;;23.58;51.96;95343.38;5050259;28;20269;-82
2021/07/10 08:54:42;;;;;;;1.30;1.20;;;22.90;70.70;;;23.79;52.22;95346.91;5017374;28;20313;-82
2021/07/10 08:57:09;;;;;;;1.30;1.20;;;23.00;70.80;;;24.02;52.11;95342.13;5033339;28;20574;-81
2021/07/10 08:59:36;;;;;;;1.05;1.05;;;23.10;70.70;;;24.25;51.31;95343.47;5016258;28;20229;-82
2021/07/10 09:02:03;;;;;;;1.23;1.23;;;23.30;70.40;;;24.54;51.20;95347.50;5049091;28;20726;-81
2021/07/10 09:04:31;;;;;;;1.10;1.10;;;23.50;70.40;;;24.79;50.94;95344.00;5029855;28;20212;-81
2021/07/10 09:06:58;;;;;;;1.38;1.27;;;23.70;70.40;;;25.05;50.25;95344.75;5048505;28;20233;-81
2021/07/10 09:09:47;;;;;;;2.15;1.30;;;23.90;70.20;;;25.29;50.14;95344.13;5033351;28;20235;-81
2021/07/10 09:12:14;;;;;;;1.20;1.20;;;24.10;69.40;;;25.36;49.43;95336.56;5049912;28;20219;-82
2021/07/10 09:14:43;;;;;;;1.20;1.20;;;24.40;69.00;;;25.45;49.14;95338.72;5030107;28;20779;-83
2021/07/10 09:17:25;;;;;;;1.40;1.30;;;24.50;68.40;;;25.48;48.95;95336.28;5009965;28;20224;-82
2021/07/10 09:19:54;;;;;;;1.50;1.40;;;24.60;67.80;;;25.42;49.13;95329.34;5001676;28;20294;-81
2021/07/10 09:22:27;;;;;;;1.30;1.20;;;24.70;67.70;;;25.34;48.35;95330.69;5032918;28;20636;-82
2021/07/10 09:24:57;;;;;;;2.92;1.30;;;24.80;67.30;;;25.29;48.78;95333.38;5016816;28;20226;-82
2021/07/10 09:27:24;;;;;;;1.10;1.10;;;24.80;67.30;;;25.32;48.54;95332.84;5029081;28;20222;-82
2021/07/10 09:29:50;;;;;;;1.27;1.20;;;24.80;67.20;;;25.38;48.11;95321.03;5020697;28;20244;-82
2021/07/10 09:32:23;;;;;;;1.38;1.20;;;24.80;67.20;;;25.46;48.28;95327.69;5020236;28;20208;-82
2021/07/10 09:34:57;;;;;;;1.30;1.20;;;24.80;67.20;;;25.50;48.15;95323.38;5033053;28;20274;-81
2021/07/10 09:37:27;;;;;;;1.30;1.25;;;24.90;67.30;;;25.56;48.02;95314.22;5018798;28;20312;-82
2021/07/10 09:40:12;;;;;;;1.13;1.10;;;24.90;67.30;;;25.61;47.88;95302.66;5038003;28;20592;-81
2021/07/10 09:42:45;;;;;;;1.77;1.13;;;24.90;67.30;;;25.66;48.12;95301.78;5052811;28;20199;-82
2021/07/10 09:45:18;;;;;;;1.40;1.30;;;25.00;67.20;;;25.62;47.44;95298.88;5015071;28;20705;-82
2021/07/10 09:47:45;;;;;;;1.38;1.25;;;25.00;66.10;;;25.56;47.77;95291.91;5017146;28;20620;-82
2021/07/10 09:50:20;;;;;;;1.20;1.20;;;25.00;67.00;;;25.56;47.62;95291.91;5029266;28;20236;-82
2021/07/10 09:52:47;;;;;;;1.10;1.10;;;25.00;66.30;;;25.55;47.72;95290.34;5000276;28;20234;-81
2021/07/10 09:55:16;;;;;;;1.15;1.15;;;25.00;66.60;;;25.55;47.33;95282.28;5014933;28;20275;-83
2021/07/10 09:57:45;;;;;;;1.40;1.27;;;25.00;66.30;;;25.60;47.49;95281.41;5000467;28;20604;-82
2021/07/10 10:00:18;;;;;;;1.30;1.20;;;25.10;66.20;;;25.62;46.96;95273.91;4991958;28;20629;-82
2021/07/10 10:02:53;;;;;;;1.05;1.05;;;25.00;65.50;;;25.59;46.92;95272.56;5035703;28;20215;-83
2021/07/10 10:05:31;;;;;;;1.88;1.10;;;25.10;65.70;;;25.61;47.18;95273.09;5036210;28;20237;-82
2021/07/10 10:08:02;;;;;;;1.00;1.00;;;25.00;65.60;;;25.63;47.10;95270.13;5035685;28;20234;-83
2021/07/10 10:10:42;;;;;;;1.27;1.20;;;25.10;65.70;;;25.68;47.23;95270.91;5016371;28;20285;-82
2021/07/10 10:13:18;;;;;;;1.20;1.10;;;25.10;65.60;;;25.75;46.63;95269.78;5014578;28;20588;-83
2021/07/10 10:15:50;;;;;;;1.30;1.20;;;25.20;65.70;;;25.82;46.82;95264.91;4988427;28;20228;-82
2021/07/10 10:18:20;;;;;;;0.93;0.93;;;25.20;65.60;;;25.86;46.34;95258.66;5000264;28;20641;-83
2021/07/10 10:20:50;;;;;;;1.05;1.05;;;25.20;65.50;;;25.91;46.22;95252.44;5035587;28;20235;-83
2021/07/10 10:23:19;;;;;;;1.10;1.10;;;25.30;65.30;;;25.93;46.13;95249.47;5052474;28;20313;-83
2021/07/10 10:25:48;;;;;;;1.00;1.00;;;25.30;65.20;;;25.98;46.40;95244.88;5052431;28;20393;-82